Terminal Aerodrome Forecast
Issued by NWS Sterling, VA

Current Version | Previous Version | Graphics & Text | Print | Product List | Glossary On
Versions: 1 2 3 4 5 6 7 8 9 10 11 12 13 14 15 16 17 18 19 20 21 22 23 24 25 26 27 28
000
FTUS41 KLWX 170542
TAFDCA
TAF
KDCA 170542Z 1706/1812 34014KT P6SM SCT250
     FM171200 02006KT P6SM FEW250
     FM171400 08005KT P6SM SCT250
     FM171800 13005KT P6SM OVC090
     FM172100 14006KT 2SM -SNPL OVC008
     FM180300 VRB03KT P6SM OVC008
     FM180600 VRB03KT P6SM BKN010
     FM180900 28005KT P6SM SCT250=

USA.gov is the U.S. government's official web portal to all federal, state and local government web resources and services.